Time;durP1;ratioP1;P1;durP2;ratioP2;P2;SDS_P1;SDS_P2;PMS_P1;PMS_P2;Temp;Humidity;BMP_temperature;BMP_pressure;BME280_temperature;BME280_humidity;BME280_pressure;Samples;Min_cycle;Max_cycle;Signal;HPM_P1;HPM_P2
2023/04/01 00:00:36;;;;;;;19.45;10.32;;;14.60;99.90;;;;;;4856925;29;20097;-70
2023/04/01 00:03:02;;;;;;;17.67;9.02;;;14.60;99.90;;;;;;4859923;29;20040;-70
2023/04/01 00:05:28;;;;;;;16.65;9.48;;;14.60;99.90;;;;;;4860239;29;20033;-71
2023/04/01 00:07:54;;;;;;;16.75;9.20;;;14.60;99.90;;;;;;4844758;29;20042;-71
2023/04/01 00:10:20;;;;;;;16.88;8.65;;;14.60;99.90;;;;;;4866629;29;20033;-72
2023/04/01 00:12:46;;;;;;;15.90;9.15;;;14.50;99.90;;;;;;4940170;28;20050;-71
2023/04/01 00:15:12;;;;;;;17.73;9.57;;;14.50;99.90;;;;;;4975980;28;20027;-71
2023/04/01 00:17:38;;;;;;;19.35;9.88;;;14.50;99.90;;;;;;4975990;28;20031;-71
2023/04/01 00:20:07;;;;;;;19.42;10.07;;;14.50;99.90;;;;;;4975792;28;20026;-70
2023/04/01 00:22:33;;;;;;;23.65;10.45;;;14.50;99.90;;;;;;4975782;28;20063;-71
2023/04/01 00:25:00;;;;;;;18.05;10.13;;;14.50;99.90;;;;;;4973450;28;20023;-70
2023/04/01 00:27:25;;;;;;;16.08;9.05;;;14.50;99.90;;;;;;4974958;28;20146;-71
2023/04/01 00:29:51;;;;;;;17.05;8.73;;;14.40;99.90;;;;;;4973020;28;20110;-71
2023/04/01 00:32:17;;;;;;;17.58;9.32;;;14.30;99.90;;;;;;4971973;28;20058;-71
2023/04/01 00:34:44;;;;;;;22.45;7.90;;;14.40;99.90;;;;;;4957731;28;20031;-72
2023/04/01 00:37:13;;;;;;;14.45;7.53;;;14.20;99.90;;;;;;4973617;28;20027;-71
2023/04/01 00:39:40;;;;;;;15.63;6.95;;;14.20;99.90;;;;;;4975725;28;20054;-70
2023/04/01 00:42:06;;;;;;;16.02;6.43;;;14.10;99.90;;;;;;4969961;28;20053;-72
2023/04/01 00:44:34;;;;;;;13.77;6.13;;;13.80;99.90;;;;;;4967458;28;20058;-69
2023/04/01 00:47:00;;;;;;;17.60;6.60;;;13.90;99.90;;;;;;4958245;28;20466;-69
2023/04/01 00:49:37;;;;;;;10.73;6.25;;;13.90;99.90;;;;;;4971223;28;20023;-69
2023/04/01 00:52:05;;;;;;;12.07;5.72;;;13.80;99.90;;;;;;4971398;28;20049;-70
2023/04/01 00:54:34;;;;;;;12.82;5.20;;;13.90;99.90;;;;;;4958697;28;20035;-70
2023/04/01 00:57:11;;;;;;;13.98;5.60;;;13.90;99.90;;;;;;4957458;28;20448;-70
2023/04/01 00:59:43;;;;;;;8.85;4.95;;;13.90;99.90;;;;;;4969079;28;20568;-71
2023/04/01 01:02:11;;;;;;;14.18;5.45;;;13.90;99.90;;;;;;4957710;28;20073;-70
2023/04/01 01:04:37;;;;;;;11.30;4.68;;;13.90;99.90;;;;;;4975197;28;20092;-70
2023/04/01 01:07:06;;;;;;;10.68;5.22;;;14.00;99.90;;;;;;4956070;28;20034;-70
2023/04/01 01:09:32;;;;;;;12.23;5.38;;;14.00;99.90;;;;;;4974980;28;20074;-70
2023/04/01 01:12:03;;;;;;;13.98;6.00;;;14.00;99.90;;;;;;4973572;28;20109;-70
2023/04/01 01:14:54;;;;;;;11.77;5.57;;;13.90;99.90;;;;;;4973659;28;20030;-70
2023/04/01 01:17:50;;;;;;;11.57;6.38;;;13.90;99.90;;;;;;4974812;28;20038;-70
2023/04/01 01:20:53;;;;;;;28.00;14.07;;;14.00;99.90;;;;;;4974831;28;20455;-70
2023/04/01 01:23:56;;;;;;;42.15;19.38;;;13.90;99.90;;;;;;4967266;28;20390;-70
2023/04/01 01:26:47;;;;;;;21.63;10.75;;;14.00;99.90;;;;;;4975830;28;20023;-70
2023/04/01 01:29:27;;;;;;;10.63;5.78;;;13.90;99.90;;;;;;4973390;28;20406;-70
2023/04/01 01:32:14;;;;;;;10.63;4.80;;;13.80;99.90;;;;;;4955431;28;20035;-70
2023/04/01 01:35:06;;;;;;;8.95;4.93;;;13.80;99.90;;;;;;4967886;28;20114;-70
2023/04/01 01:37:32;;;;;;;8.40;4.85;;;13.70;99.90;;;;;;4969858;28;20058;-70
2023/04/01 01:40:05;;;;;;;10.63;5.60;;;13.60;99.90;;;;;;4956604;28;20023;-70
2023/04/01 01:42:36;;;;;;;12.68;5.72;;;13.70;99.90;;;;;;4956865;28;20069;-70
2023/04/01 01:45:05;;;;;;;26.80;12.13;;;13.60;99.90;;;;;;4956914;28;20023;-70
2023/04/01 01:47:33;;;;;;;19.17;8.85;;;13.60;99.90;;;;;;4974343;28;20030;-70
2023/04/01 01:50:01;;;;;;;15.73;6.75;;;13.50;99.90;;;;;;4972898;28;20382;-70
2023/04/01 01:52:30;;;;;;;16.48;7.13;;;13.40;99.90;;;;;;4972976;28;20406;-70
2023/04/01 01:54:57;;;;;;;13.95;7.32;;;13.30;99.90;;;;;;4972663;28;20026;-70
2023/04/01 01:57:37;;;;;;;12.43;4.80;;;13.30;99.90;;;;;;4972566;28;20123;-70
2023/04/01 02:00:13;;;;;;;9.60;4.53;;;13.20;99.90;;;;;;4957758;28;20034;-69
2023/04/01 02:02:42;;;;;;;11.10;4.53;;;13.10;99.90;;;;;;4948711;28;20049;-69
2023/04/01 02:05:11;;;;;;;9.85;5.03;;;13.10;99.90;;;;;;4972767;28;20137;-71
2023/04/01 02:07:39;;;;;;;11.82;5.05;;;13.00;99.90;;;;;;4973579;28;20041;-71
2023/04/01 02:10:06;;;;;;;12.85;4.18;;;13.00;99.90;;;;;;4972568;28;20022;-69
2023/04/01 02:12:34;;;;;;;12.52;4.90;;;13.00;99.90;;;;;;4973008;28;20023;-69
2023/04/01 02:15:13;;;;;;;10.75;4.40;;;12.90;99.90;;;;;;4956452;28;20046;-70
2023/04/01 02:17:44;;;;;;;13.52;4.20;;;12.90;99.90;;;;;;4972415;28;20057;-70
2023/04/01 02:20:17;;;;;;;10.60;4.93;;;12.80;99.90;;;;;;4968594;28;20031;-71
2023/04/01 02:22:49;;;;;;;9.10;4.10;;;12.70;99.90;;;;;;4964907;28;20573;-69
2023/04/01 02:25:20;;;;;;;7.50;4.03;;;12.70;99.90;;;;;;4955668;28;20385;-70
2023/04/01 02:27:46;;;;;;;14.95;4.43;;;12.70;99.90;;;;;;4974005;28;20027;-70
2023/04/01 02:30:15;;;;;;;8.90;4.05;;;12.60;99.90;;;;;;4970862;28;20030;-70
2023/04/01 02:32:41;;;;;;;8.65;3.75;;;12.60;99.90;;;;;;4955484;28;20031;-70
2023/04/01 02:35:12;;;;;;;15.82;4.22;;;12.60;99.90;;;;;;4952539;28;20067;-70
2023/04/01 02:37:42;;;;;;;8.15;4.05;;;12.60;99.90;;;;;;4968523;28;20034;-71
2023/04/01 02:40:11;;;;;;;9.98;4.07;;;12.50;99.90;;;;;;4971033;28;20035;-71
2023/04/01 02:42:37;;;;;;;11.77;3.75;;;12.50;99.90;;;;;;4971559;28;20047;-71
2023/04/01 02:45:04;;;;;;;9.75;3.75;;;12.50;99.90;;;;;;4973379;28;20050;-72
2023/04/01 02:47:30;;;;;;;6.78;2.67;;;12.40;99.90;;;;;;4971769;28;20367;-72
2023/04/01 02:49:58;;;;;;;14.13;2.90;;;12.40;99.90;;;;;;4955992;28;20038;-71
2023/04/01 02:52:29;;;;;;;5.72;3.10;;;12.40;99.90;;;;;;4972502;28;20367;-70
2023/04/01 02:54:57;;;;;;;6.57;3.42;;;12.20;99.90;;;;;;4954658;28;20030;-71
2023/04/01 02:57:24;;;;;;;6.13;3.47;;;12.30;99.90;;;;;;4937856;29;20495;-72
2023/04/01 02:59:49;;;;;;;7.95;3.40;;;12.20;99.90;;;;;;4951004;28;20034;-70
2023/04/01 03:02:17;;;;;;;4.43;2.47;;;12.10;99.90;;;;;;4952985;28;20043;-71
2023/04/01 03:04:43;;;;;;;8.20;3.05;;;12.10;99.90;;;;;;4953086;28;20030;-71
2023/04/01 03:07:12;;;;;;;6.30;3.17;;;12.00;99.90;;;;;;4970382;28;20031;-70
2023/04/01 03:09:38;;;;;;;6.88;2.75;;;12.00;99.90;;;;;;4955547;28;20039;-71
2023/04/01 03:12:05;;;;;;;8.77;3.88;;;12.00;99.90;;;;;;4973153;28;20348;-72
2023/04/01 03:14:37;;;;;;;6.03;2.88;;;11.90;99.90;;;;;;4955670;28;20037;-72
2023/04/01 03:17:03;;;;;;;6.55;3.58;;;11.90;99.90;;;;;;4971427;28;20026;-73
2023/04/01 03:19:29;;;;;;;5.90;2.60;;;12.00;99.90;;;;;;4954988;28;20054;-72
2023/04/01 03:21:55;;;;;;;4.07;2.78;;;11.90;99.90;;;;;;4955734;28;20085;-72
2023/04/01 03:24:21;;;;;;;5.88;3.50;;;11.90;99.90;;;;;;4971712;28;20038;-72
2023/04/01 03:26:48;;;;;;;5.05;2.85;;;11.90;99.90;;;;;;4971702;28;20034;-72
2023/04/01 03:29:15;;;;;;;6.38;2.75;;;11.80;99.90;;;;;;4971659;28;20038;-72
2023/04/01 03:31:41;;;;;;;9.52;2.63;;;11.80;99.90;;;;;;4971605;28;20101;-72
2023/04/01 03:34:08;;;;;;;4.13;2.60;;;11.80;99.90;;;;;;4971244;28;20039;-72
2023/04/01 03:36:34;;;;;;;4.40;2.33;;;11.80;99.90;;;;;;4974022;28;20039;-72
2023/04/01 03:39:00;;;;;;;7.00;3.17;;;11.80;99.90;;;;;;4959400;28;20030;-71
2023/04/01 03:41:38;;;;;;;8.75;4.25;;;11.70;99.90;;;;;;4975316;28;20450;-72
2023/04/01 03:44:04;;;;;;;7.57;4.15;;;11.60;99.90;;;;;;4975437;28;20030;-72
2023/04/01 03:46:34;;;;;;;10.60;4.45;;;11.70;99.90;;;;;;4974860;28;20069;-71
2023/04/01 03:49:00;;;;;;;11.27;4.72;;;11.80;99.90;;;;;;4959052;28;20396;-71
2023/04/01 03:51:25;;;;;;;10.73;4.85;;;11.80;99.90;;;;;;4975674;28;20039;-71
2023/04/01 03:53:52;;;;;;;6.82;3.17;;;11.90;99.90;;;;;;4975158;28;20038;-71
2023/04/01 03:56:18;;;;;;;10.45;3.20;;;11.90;99.90;;;;;;4976613;28;20037;-72
2023/04/01 03:58:51;;;;;;;6.40;3.25;;;12.00;99.90;;;;;;4958703;28;20065;-71
2023/04/01 04:01:20;;;;;;;6.75;3.13;;;11.90;99.90;;;;;;4956748;28;20042;-71
2023/04/01 04:03:49;;;;;;;6.93;3.17;;;12.00;99.90;;;;;;4959187;28;20406;-72
2023/04/01 04:06:23;;;;;;;7.72;3.47;;;12.10;99.90;;;;;;4974730;28;20081;-71
2023/04/01 04:08:49;;;;;;;7.07;3.03;;;12.10;99.90;;;;;;4959331;28;20031;-72
2023/04/01 04:11:16;;;;;;;6.38;3.10;;;12.10;99.90;;;;;;4974722;28;20026;-71
2023/04/01 04:13:43;;;;;;;7.30;3.50;;;12.10;99.90;;;;;;4975008;28;20052;-70
2023/04/01 04:16:09;;;;;;;7.93;3.45;;;12.10;99.90;;;;;;4974530;28;20146;-70
2023/04/01 04:18:39;;;;;;;6.22;3.47;;;12.10;99.90;;;;;;4974929;28;20118;-70
2023/04/01 04:21:05;;;;;;;10.05;4.57;;;12.10;99.90;;;;;;4975975;28;20114;-70
2023/04/01 04:23:33;;;;;;;13.15;6.47;;;12.10;99.90;;;;;;4975821;28;20027;-71
2023/04/01 04:26:06;;;;;;;12.52;6.15;;;12.10;99.90;;;;;;4974734;28;20027;-70
2023/04/01 04:28:32;;;;;;;;;;;12.10;99.90;;;;;;4958765;28;20034;-70
2023/04/01 04:30:59;;;;;;;8.15;3.90;;;12.10;99.90;;;;;;4974681;28;19925;-71
2023/04/01 04:33:26;;;;;;;9.18;4.05;;;12.00;99.90;;;;;;4974190;28;20035;-71
2023/04/01 04:35:55;;;;;;;13.80;7.10;;;11.80;99.90;;;;;;4974825;28;20023;-71
2023/04/01 04:38:22;;;;;;;13.02;5.72;;;11.70;99.90;;;;;;4958362;28;20408;-72
2023/04/01 04:40:48;;;;;;;11.35;5.43;;;11.60;99.90;;;;;;4975776;28;20038;-71
2023/04/01 04:43:16;;;;;;;5.63;3.67;;;11.60;99.90;;;;;;4972509;28;20058;-70
2023/04/01 04:45:42;;;;;;;9.82;4.40;;;11.60;99.90;;;;;;4973322;28;20489;-70
2023/04/01 04:48:15;;;;;;;7.82;4.03;;;11.70;99.90;;;;;;4956464;28;20041;-70
2023/04/01 04:50:42;;;;;;;4.25;2.67;;;11.70;99.90;;;;;;4970461;28;20030;-70
2023/04/01 04:53:12;;;;;;;9.20;3.22;;;11.80;99.90;;;;;;4974573;28;20475;-70
2023/04/01 04:55:42;;;;;;;46.10;36.45;;;11.60;99.90;;;;;;4957727;28;20035;-70
2023/04/01 04:58:22;;;;;;;8.85;3.70;;;11.50;99.90;;;;;;4946206;28;20400;-70
2023/04/01 05:01:07;;;;;;;6.75;3.85;;;11.30;99.90;;;;;;4957630;28;20042;-70
2023/04/01 05:03:45;;;;;;;6.53;3.40;;;11.20;99.90;;;;;;4953241;29;20500;-71
2023/04/01 05:06:29;;;;;;;6.72;3.75;;;11.10;99.90;;;;;;4936775;29;20135;-71
2023/04/01 05:09:38;;;;;;;7.97;4.05;;;11.10;99.90;;;;;;4927286;29;20042;-71
2023/04/01 05:12:41;;;;;;;9.57;4.25;;;11.30;99.90;;;;;;4909638;29;20494;-70
2023/04/01 05:15:33;;;;;;;13.15;5.72;;;11.30;99.90;;;;;;4908458;29;20047;-70
2023/04/01 05:18:00;;;;;;;10.35;5.88;;;11.40;99.90;;;;;;4900034;29;20032;-70
2023/04/01 05:20:36;;;;;;;9.10;5.07;;;11.40;99.90;;;;;;4899147;29;20573;-70
2023/04/01 05:23:20;;;;;;;9.15;5.18;;;11.40;99.90;;;;;;4915092;29;20032;-71
2023/04/01 05:25:56;;;;;;;11.98;5.60;;;11.40;99.90;;;;;;4898857;29;20087;-70
2023/04/01 05:28:23;;;;;;;23.98;5.63;;;11.40;99.90;;;;;;4925063;29;20066;-71
2023/04/01 05:30:49;;;;;;;12.77;6.05;;;11.40;99.90;;;;;;4933883;28;20034;-70
2023/04/01 05:33:30;;;;;;;13.43;6.72;;;11.40;99.90;;;;;;4917891;29;20497;-71
2023/04/01 05:36:22;;;;;;;10.57;5.72;;;11.40;99.90;;;;;;4933127;29;20498;-70
2023/04/01 05:38:58;;;;;;;18.38;8.82;;;11.40;99.90;;;;;;4915874;29;20050;-71
2023/04/01 05:42:02;;;;;;;24.05;12.00;;;11.40;99.90;;;;;;4917689;29;20051;-71
2023/04/01 05:44:48;;;;;;;14.07;6.50;;;11.40;99.90;;;;;;4931684;29;20047;-71
2023/04/01 05:47:44;;;;;;;15.77;8.05;;;11.40;99.90;;;;;;4932194;29;20083;-71
2023/04/01 05:50:11;;;;;;;19.13;8.25;;;11.30;99.90;;;;;;4931729;29;20134;-71
2023/04/01 05:52:38;;;;;;;13.90;7.05;;;11.40;99.90;;;;;;4968524;28;20031;-70
2023/04/01 05:55:04;;;;;;;15.48;7.35;;;11.40;99.90;;;;;;4971947;28;20475;-70
2023/04/01 05:57:30;;;;;;;12.93;7.18;;;11.40;99.90;;;;;;4974414;28;20043;-70
2023/04/01 05:59:59;;;;;;;12.43;6.40;;;11.50;99.90;;;;;;4955573;28;20030;-71
2023/04/01 06:02:38;;;;;;;12.68;7.30;;;11.50;99.90;;;;;;4960966;28;20039;-71
2023/04/01 06:05:20;;;;;;;11.35;6.28;;;11.50;99.90;;;;;;4956602;28;20023;-71
2023/04/01 06:07:46;;;;;;;9.20;5.60;;;11.50;99.90;;;;;;4963030;28;20384;-72
2023/04/01 06:10:34;;;;;;;9.57;4.90;;;11.50;99.90;;;;;;4956515;28;20112;-72
2023/04/01 06:13:21;;;;;;;11.32;4.85;;;11.40;99.90;;;;;;4956336;28;20044;-71
2023/04/01 06:16:12;;;;;;;12.00;5.13;;;11.50;99.90;;;;;;4972139;28;20043;-72
2023/04/01 06:19:06;;;;;;;9.98;5.60;;;11.50;99.90;;;;;;4953676;28;20546;-72
2023/04/01 06:21:52;;;;;;;11.30;6.30;;;11.40;99.90;;;;;;4956227;28;20035;-71
2023/04/01 06:24:34;;;;;;;18.17;8.77;;;11.20;99.90;;;;;;4941299;29;20430;-72
2023/04/01 06:27:46;;;;;;;10.13;5.70;;;11.20;99.90;;;;;;4952710;29;20130;-71
2023/04/01 06:30:31;;;;;;;10.75;5.50;;;11.20;99.90;;;;;;4954810;28;20030;-71
2023/04/01 06:33:28;;;;;;;10.23;6.25;;;11.20;99.90;;;;;;4963986;28;20155;-71
2023/04/01 06:36:10;;;;;;;10.63;5.20;;;11.10;99.90;;;;;;4964725;28;20043;-72
2023/04/01 06:39:00;;;;;;;9.40;5.78;;;11.20;99.90;;;;;;4955399;28;20031;-71
2023/04/01 06:42:11;;;;;;;9.43;4.75;;;11.30;99.90;;;;;;4970145;28;20038;-70
2023/04/01 06:45:14;;;;;;;9.55;3.95;;;11.50;99.90;;;;;;4911528;29;20135;-71
2023/04/01 06:48:41;;;;;;;8.23;4.57;;;11.50;99.90;;;;;;4838949;29;20545;-71
2023/04/01 06:51:46;;;;;;;11.63;5.18;;;11.60;99.90;;;;;;4782321;30;20123;-71
2023/04/01 06:54:39;;;;;;;9.82;5.38;;;11.60;99.90;;;;;;4784576;29;20099;-71
2023/04/01 06:57:31;;;;;;;11.02;3.80;;;11.50;99.90;;;;;;4784852;30;20058;-71
2023/04/01 07:00:00;;;;;;;6.15;3.05;;;11.50;99.90;;;;;;4784461;29;20058;-71
2023/04/01 07:02:36;;;;;;;8.40;4.47;;;11.50;99.90;;;;;;4785076;30;20099;-72
2023/04/01 07:05:05;;;;;;;9.50;3.65;;;11.50;99.90;;;;;;4784975;30;20035;-71
2023/04/01 07:07:53;;;;;;;7.70;3.70;;;11.40;99.90;;;;;;4784063;29;20100;-72
2023/04/01 07:10:33;;;;;;;5.35;3.30;;;11.50;99.90;;;;;;4784504;30;20119;-70
2023/04/01 07:13:31;;;;;;;8.43;4.53;;;11.50;99.90;;;;;;4785285;30;20426;-70
2023/04/01 07:16:17;;;;;;;6.93;4.20;;;11.50;99.90;;;;;;4787230;29;20047;-71
2023/04/01 07:19:04;;;;;;;9.43;3.88;;;11.50;99.90;;;;;;4791797;29;20051;-74
2023/04/01 07:21:54;;;;;;;8.35;5.00;;;11.40;99.90;;;;;;4804621;29;20055;-71
2023/04/01 07:24:36;;;;;;;12.57;5.45;;;11.40;99.90;;;;;;4848912;29;20065;-73
2023/04/01 07:27:12;;;;;;;15.23;7.05;;;11.50;99.90;;;;;;4903671;28;20042;-71
2023/04/01 07:29:40;;;;;;;12.63;6.55;;;11.50;99.90;;;;;;4955258;28;20031;-73
2023/04/01 07:32:49;;;;;;;14.70;6.55;;;11.50;99.90;;;;;;4945464;28;20035;-73
2023/04/01 07:35:53;;;;;;;13.75;6.43;;;11.60;99.90;;;;;;4902243;29;20119;-73
2023/04/01 07:38:31;;;;;;;;;;;11.60;99.90;;;;;;4913048;28;20050;-72
2023/04/01 07:41:32;;;;;;;14.88;6.93;;;11.60;99.90;;;;;;4897446;29;19923;-72
2023/04/01 07:44:21;;;;;;;17.65;8.60;;;11.40;99.90;;;;;;4897261;29;20051;-73
2023/04/01 07:47:26;;;;;;;22.33;10.50;;;11.40;99.90;;;;;;4830671;29;20033;-73
2023/04/01 07:50:10;;;;;;;15.80;7.90;;;11.30;99.90;;;;;;4800241;29;20495;-75
2023/04/01 07:53:10;;;;;;;16.58;9.25;;;11.30;99.90;;;;;;4802013;29;20050;-73
2023/04/01 07:55:59;;;;;;;12.85;7.95;;;11.20;99.90;;;;;;4784318;30;20043;-73
2023/04/01 07:58:59;;;;;;;12.95;8.55;;;11.20;99.90;;;;;;4784585;30;20492;-73
2023/04/01 08:02:06;;;;;;;14.45;8.27;;;11.10;99.90;;;;;;4802287;29;20118;-72
2023/04/01 08:04:51;;;;;;;17.17;9.20;;;11.00;99.90;;;;;;4786726;29;20039;-72
2023/04/01 08:07:32;;;;;;;15.02;9.52;;;11.00;99.90;;;;;;4801961;29;20039;-72
2023/04/01 08:10:46;;;;;;;16.67;8.50;;;11.00;99.90;;;;;;4800233;29;20130;-73
2023/04/01 08:14:14;;;;;;;12.10;7.00;;;11.00;99.90;;;;;;4808610;29;20432;-72
2023/04/01 08:17:49;;;;;;;9.15;4.72;;;11.00;99.90;;;;;;4765978;30;20048;-72
2023/04/01 08:20:56;;;;;;;9.00;3.92;;;10.90;99.90;;;;;;4765501;30;20048;-72
2023/04/01 08:23:37;;;;;;;6.95;3.85;;;10.80;99.90;;;;;;4766991;30;20101;-72
2023/04/01 08:26:03;;;;;;;6.47;3.45;;;10.80;99.90;;;;;;4791619;29;20347;-72
2023/04/01 08:28:57;;;;;;;7.38;3.65;;;10.70;99.90;;;;;;4819224;29;20479;-72
2023/04/01 08:31:39;;;;;;;6.15;2.58;;;10.70;99.90;;;;;;4834079;29;20509;-72
2023/04/01 08:34:15;;;;;;;7.45;2.70;;;10.70;99.90;;;;;;4878557;29;20038;-72
2023/04/01 08:36:49;;;;;;;5.88;3.28;;;10.60;99.90;;;;;;4862386;29;20033;-72
2023/04/01 08:39:32;;;;;;;14.90;7.15;;;10.60;99.90;;;;;;4892505;29;20408;-72
2023/04/01 08:42:12;;;;;;;11.75;5.88;;;10.60;99.90;;;;;;4886946;29;20068;-74
2023/04/01 08:44:50;;;;;;;7.97;3.88;;;10.60;99.90;;;;;;4900858;29;20032;-73
2023/04/01 08:47:33;;;;;;;10.52;5.75;;;10.60;99.90;;;;;;4903217;29;20043;-72
2023/04/01 08:50:18;;;;;;;6.57;2.33;;;10.60;99.90;;;;;;4918942;29;20544;-73
2023/04/01 08:53:18;;;;;;;5.05;3.10;;;10.60;99.90;;;;;;4916240;29;20048;-73
2023/04/01 08:55:52;;;;;;;5.97;2.97;;;10.70;99.90;;;;;;4912782;29;20028;-72
2023/04/01 08:58:47;;;;;;;11.07;4.65;;;10.60;99.90;;;;;;4918586;29;20046;-72
2023/04/01 09:01:40;;;;;;;6.03;2.90;;;10.70;99.90;;;;;;4955020;28;20027;-72
2023/04/01 09:04:11;;;;;;;4.80;3.08;;;10.70;99.90;;;;;;4973693;28;20509;-72
2023/04/01 09:07:08;;;;;;;7.03;4.15;;;10.70;99.90;;;;;;4974087;28;20054;-71
2023/04/01 09:10:01;;;;;;;9.05;3.95;;;10.70;99.90;;;;;;4973913;28;20041;-71
2023/04/01 09:13:08;;;;;;;8.20;4.20;;;10.70;99.90;;;;;;4973957;28;20051;-73
2023/04/01 09:15:47;;;;;;;10.20;3.95;;;10.70;99.90;;;;;;4973689;28;20037;-72
2023/04/01 09:18:16;;;;;;;10.73;4.53;;;10.70;99.90;;;;;;4973441;28;20031;-72
2023/04/01 09:20:57;;;;;;;6.45;3.00;;;10.70;99.90;;;;;;4973742;28;20019;-72
2023/04/01 09:23:50;;;;;;;10.88;5.13;;;10.70;99.90;;;;;;4973538;28;20031;-72
2023/04/01 09:26:16;;;;;;;;;;;10.80;99.90;;;;;;4973729;28;20109;-72
2023/04/01 09:28:51;;;;;;;5.63;2.80;;;10.80;99.90;;;;;;4955566;28;19910;-72
2023/04/01 09:31:20;;;;;;;6.63;2.85;;;10.80;99.90;;;;;;4964829;28;20480;-72
2023/04/01 09:34:46;;;;;;;8.05;2.50;;;10.90;99.90;;;;;;4964272;28;20023;-72
2023/04/01 09:37:21;;;;;;;4.30;1.75;;;10.90;99.90;;;;;;4955153;28;20027;-72
2023/04/01 09:40:15;;;;;;;3.88;2.10;;;10.90;99.90;;;;;;4971900;28;20027;-72
2023/04/01 09:43:04;;;;;;;2.67;1.50;;;10.90;99.90;;;;;;4953735;29;20047;-72
2023/04/01 09:46:02;;;;;;;3.40;1.80;;;10.90;99.90;;;;;;4968941;28;20035;-72
2023/04/01 09:49:06;;;;;;;6.05;2.72;;;10.90;99.90;;;;;;4963260;28;20028;-73
2023/04/01 09:51:57;;;;;;;4.93;2.30;;;10.90;99.90;;;;;;4969642;28;20530;-72
2023/04/01 09:54:32;;;;;;;7.93;3.72;;;10.90;99.90;;;;;;4953658;29;20035;-73
2023/04/01 09:57:15;;;;;;;10.75;4.10;;;10.90;99.90;;;;;;4970225;28;20446;-74
2023/04/01 09:59:45;;;;;;;5.10;2.55;;;11.00;99.90;;;;;;4953535;29;20106;-74
2023/04/01 10:02:59;;;;;;;4.75;2.70;;;10.90;99.90;;;;;;4954408;29;20031;-73
2023/04/01 10:05:51;;;;;;;4.13;2.00;;;11.00;99.90;;;;;;4942204;29;20035;-73
2023/04/01 10:08:52;;;;;;;5.28;2.97;;;10.90;99.90;;;;;;4942390;29;20089;-72
2023/04/01 10:11:41;;;;;;;4.60;2.97;;;10.70;99.90;;;;;;4969206;28;20043;-73
2023/04/01 10:14:29;;;;;;;4.40;3.13;;;10.70;99.90;;;;;;4937084;29;20032;-73
2023/04/01 10:16:56;;;;;;;4.18;2.60;;;10.80;99.90;;;;;;4936315;29;20035;-73
2023/04/01 10:19:59;;;;;;;4.40;2.53;;;10.70;99.90;;;;;;4950414;29;20034;-74
2023/04/01 10:22:36;;;;;;;6.38;3.38;;;10.80;99.90;;;;;;4951134;29;20031;-75
2023/04/01 10:25:23;;;;;;;6.95;3.40;;;10.70;99.90;;;;;;4952722;29;20027;-72
2023/04/01 10:28:11;;;;;;;7.82;3.42;;;10.60;99.90;;;;;;4961441;28;20142;-72
2023/04/01 10:31:21;;;;;;;4.45;2.60;;;10.60;99.90;;;;;;4944770;28;20105;-71
2023/04/01 10:34:10;;;;;;;5.90;2.85;;;10.60;99.90;;;;;;4952225;29;20027;-72
2023/04/01 10:36:53;;;;;;;4.38;2.47;;;10.50;99.90;;;;;;4952450;29;20034;-73
2023/04/01 10:40:11;;;;;;;3.97;1.88;;;10.50;99.90;;;;;;4940226;29;20027;-72
2023/04/01 10:43:21;;;;;;;5.85;2.08;;;10.50;99.90;;;;;;4934557;29;20177;-71
2023/04/01 10:46:17;;;;;;;3.80;2.05;;;10.50;99.90;;;;;;4931870;29;20031;-72
2023/04/01 10:48:49;;;;;;;8.15;3.05;;;10.40;99.90;;;;;;4913956;29;20524;-72
2023/04/01 10:51:36;;;;;;;7.25;3.72;;;10.40;99.90;;;;;;4924895;29;20050;-71
2023/04/01 10:54:52;;;;;;;4.78;2.45;;;10.40;99.90;;;;;;4922730;29;20040;-71
2023/04/01 10:58:10;;;;;;;8.40;3.80;;;10.30;99.90;;;;;;4831433;29;20045;-73
2023/04/01 11:01:16;;;;;;;3.70;2.40;;;10.40;99.90;;;;;;4838903;29;20044;-71
2023/04/01 11:04:24;;;;;;;4.45;2.25;;;10.30;99.90;;;;;;4832518;29;20037;-73
2023/04/01 11:07:51;;;;;;;5.80;3.67;;;10.40;99.90;;;;;;4808959;29;20129;-71
2023/04/01 11:11:13;;;;;;;5.95;3.20;;;10.40;99.90;;;;;;4770216;29;20032;-71
2023/04/01 11:14:17;;;;;;;8.90;3.28;;;10.40;99.90;;;;;;4716519;30;20052;-71
2023/04/01 11:17:12;;;;;;;7.55;3.40;;;10.40;99.90;;;;;;4730736;30;20194;-71
2023/04/01 11:19:57;;;;;;;;;;;10.40;99.90;;;;;;4713283;30;20053;-70
2023/04/01 11:22:49;;;;;;;6.20;2.97;;;10.40;99.90;;;;;;4712726;30;19945;-71
2023/04/01 11:25:21;;;;;;;8.88;4.57;;;10.40;99.90;;;;;;4708392;30;20060;-72
2023/04/01 11:28:24;;;;;;;10.25;4.05;;;10.40;99.90;;;;;;4731551;30;20064;-72
2023/04/01 11:31:22;;;;;;;7.65;4.95;;;10.50;99.90;;;;;;4729188;30;20059;-73
2023/04/01 11:34:04;;;;;;;5.63;3.63;;;10.50;99.90;;;;;;4721232;30;20548;-72
2023/04/01 11:36:39;;;;;;;9.00;4.15;;;10.50;99.90;;;;;;4739154;30;20059;-71
2023/04/01 11:39:43;;;;;;;5.72;3.60;;;10.50;99.90;;;;;;4747579;30;20029;-72
2023/04/01 11:43:06;;;;;;;5.63;3.22;;;10.50;99.90;;;;;;4765176;30;20072;-72
2023/04/01 11:45:57;;;;;;;8.43;4.35;;;10.60;99.90;;;;;;4838539;29;20117;-70
2023/04/01 11:48:40;;;;;;;10.27;4.93;;;10.50;99.90;;;;;;4821864;29;20125;-72
2023/04/01 11:51:15;;;;;;;7.65;3.60;;;10.50;99.90;;;;;;4889628;29;20056;-72
2023/04/01 11:53:52;;;;;;;6.43;3.45;;;10.50;99.90;;;;;;4878595;29;20068;-70
2023/04/01 11:56:52;;;;;;;7.57;3.60;;;10.50;99.90;;;;;;4879692;29;20428;-70
2023/04/01 12:00:06;;;;;;;6.47;3.83;;;10.50;99.90;;;;;;4868298;29;20124;-71
2023/04/01 12:03:00;;;;;;;7.88;3.83;;;10.50;99.90;;;;;;4821289;29;20039;-71
2023/04/01 12:05:42;;;;;;;6.65;3.63;;;10.50;99.90;;;;;;4821862;29;20233;-70
2023/04/01 12:08:35;;;;;;;9.70;4.55;;;10.60;99.90;;;;;;4822085;29;20386;-71
2023/04/01 12:11:16;;;;;;;7.07;4.35;;;10.60;99.90;;;;;;4819640;29;20070;-72
2023/04/01 12:14:01;;;;;;;8.65;5.13;;;10.50;99.90;;;;;;4823847;29;20147;-71
2023/04/01 12:16:49;;;;;;;9.45;3.05;;;10.50;99.90;;;;;;4822492;29;20046;-70
2023/04/01 12:19:47;;;;;;;6.15;3.72;;;10.60;99.90;;;;;;4833958;29;20041;-71
2023/04/01 12:22:54;;;;;;;4.68;2.58;;;10.60;99.90;;;;;;4858509;29;20117;-71
2023/04/01 12:25:26;;;;;;;5.55;2.60;;;10.60;99.90;;;;;;4822720;29;20070;-73
2023/04/01 12:28:16;;;;;;;7.97;4.40;;;10.50;99.90;;;;;;4812528;29;20103;-72
2023/04/01 12:30:51;;;;;;;8.27;3.30;;;10.60;99.90;;;;;;4822190;29;20046;-71
2023/04/01 12:33:48;;;;;;;6.55;3.28;;;10.60;99.90;;;;;;4823548;29;20538;-73
2023/04/01 12:36:27;;;;;;;6.38;3.35;;;10.50;99.90;;;;;;4850953;29;20049;-71
2023/04/01 12:39:20;;;;;;;9.23;5.45;;;10.50;99.90;;;;;;4897604;29;20065;-71
2023/04/01 12:42:07;;;;;;;11.95;5.68;;;10.50;99.90;;;;;;4881159;29;20390;-71
2023/04/01 12:45:11;;;;;;;10.52;6.10;;;10.50;99.90;;;;;;4897248;29;20057;-71
2023/04/01 12:47:48;;;;;;;6.95;4.40;;;10.60;99.90;;;;;;4896814;29;20056;-71
2023/04/01 12:50:15;;;;;;;9.05;4.82;;;10.60;99.90;;;;;;4897291;29;20056;-70
2023/04/01 12:53:17;;;;;;;13.05;6.63;;;10.60;99.90;;;;;;4896889;29;20037;-70
2023/04/01 12:55:49;;;;;;;7.65;4.15;;;10.70;99.90;;;;;;4889518;29;20044;-70
2023/04/01 12:58:29;;;;;;;7.28;4.10;;;10.70;99.90;;;;;;4897145;29;20533;-70
2023/04/01 13:01:10;;;;;;;7.78;3.80;;;10.60;99.90;;;;;;4897140;29;20032;-71
2023/04/01 13:04:20;;;;;;;8.40;4.45;;;10.60;99.90;;;;;;4956144;29;20427;-71
2023/04/01 13:06:53;;;;;;;4.53;2.67;;;10.60;99.90;;;;;;4878108;29;20041;-72
2023/04/01 13:09:47;;;;;;;10.02;5.15;;;10.60;99.90;;;;;;4877850;29;20040;-71
2023/04/01 13:12:46;;;;;;;11.23;5.80;;;10.60;99.90;;;;;;4878091;29;20444;-72
2023/04/01 13:15:17;;;;;;;6.20;3.35;;;10.60;99.90;;;;;;4878186;29;20499;-69
2023/04/01 13:17:48;;;;;;;11.75;4.72;;;10.60;99.90;;;;;;4877699;29;20039;-70
2023/04/01 13:20:47;;;;;;;9.52;4.43;;;10.60;99.90;;;;;;4877998;29;20482;-70
2023/04/01 13:23:38;;;;;;;8.07;4.07;;;10.60;99.90;;;;;;4878008;29;20066;-70
2023/04/01 13:26:20;;;;;;;6.43;3.10;;;10.60;99.90;;;;;;4878186;29;20462;-71
2023/04/01 13:29:06;;;;;;;12.10;4.97;;;10.70;99.90;;;;;;4877529;29;20053;-70
2023/04/01 13:31:38;;;;;;;9.30;5.45;;;10.60;99.90;;;;;;4877619;29;20044;-70
2023/04/01 13:34:13;;;;;;;;;;;10.70;99.90;;;;;;4878102;29;20600;-71
2023/04/01 13:37:01;;;;;;;9.18;4.45;;;10.80;99.90;;;;;;4877616;29;19916;-72
2023/04/01 13:40:00;;;;;;;9.73;5.55;;;10.80;99.90;;;;;;4879380;29;20071;-70
2023/04/01 13:42:31;;;;;;;11.57;5.93;;;10.90;99.90;;;;;;4945004;29;20059;-72
2023/04/01 13:45:17;;;;;;;8.40;4.90;;;10.90;99.90;;;;;;4955244;29;20383;-71
2023/04/01 13:48:11;;;;;;;12.75;6.78;;;10.90;99.90;;;;;;4955333;29;20031;-71
2023/04/01 13:51:30;;;;;;;12.27;5.72;;;11.00;99.90;;;;;;4954939;29;20090;-72
2023/04/01 13:54:14;;;;;;;10.38;4.55;;;11.00;99.90;;;;;;4905717;29;20139;-72
2023/04/01 13:56:46;;;;;;;7.53;3.72;;;11.10;99.90;;;;;;4914792;29;20047;-72